createdAt,value
2023-04-16T00:14:42.027Z,26
2023-04-16T00:43:40.908Z,24
2023-04-16T01:12:50.808Z,26
2023-04-16T01:41:49.363Z,25
2023-04-16T02:10:51.027Z,25
2023-04-16T02:39:52.461Z,26
2023-04-16T03:08:58.712Z,25
2023-04-16T03:37:51.964Z,26
2023-04-16T04:06:54.442Z,26
2023-04-16T04:35:52.710Z,25
2023-04-16T05:05:10.396Z,22
2023-04-16T05:34:02.898Z,21
2023-04-16T06:03:00.801Z,19
2023-04-16T06:31:34.173Z,20
2023-04-16T07:00:22.329Z,21
2023-04-16T07:29:20.120Z,24
2023-04-16T07:58:17.168Z,21
2023-04-16T08:27:20.484Z,23
2023-04-16T08:55:48.888Z,22
2023-04-16T09:24:43.999Z,23
2023-04-16T09:53:45.039Z,21
2023-04-16T10:22:08.048Z,21
2023-04-16T10:50:27.997Z,21
2023-04-16T11:18:45.386Z,20
2023-04-16T11:46:55.983Z,20
2023-04-16T12:15:22.503Z,20
2023-04-16T12:43:43.255Z,19
2023-04-16T13:11:56.412Z,20
2023-04-16T13:40:12.877Z,19
2023-04-16T14:08:35.070Z,18
2023-04-16T14:36:56.534Z,19
2023-04-16T15:05:15.687Z,22
2023-04-16T15:33:36.496Z,18
2023-04-16T16:01:56.656Z,17
2023-04-16T16:30:07.912Z,20
2023-04-16T16:58:28.851Z,20
2023-04-16T17:26:49.974Z,20
2023-04-16T17:55:04.576Z,22
2023-04-16T18:23:23.090Z,23
2023-04-16T18:51:46.837Z,23
2023-04-16T19:19:59.829Z,23
2023-04-16T19:48:13.644Z,26
2023-04-16T20:16:38.205Z,27
2023-04-16T20:45:00.720Z,29
2023-04-16T21:13:23.817Z,31
2023-04-16T21:41:49.498Z,30
2023-04-16T22:10:01.063Z,34
2023-04-16T22:38:20.295Z,35
2023-04-16T23:06:39.748Z,35
2023-04-16T23:34:59.362Z,36
